Station: Smithton

  Atmospheric Gas Attenuation - ITU Rec 676-11   --------------- db/100km ---------------
Date Time Temp RH % AH g/m3 Dew Point Wind Direction Speed kph Gust kph Barometer mB Rainfall Since 9am 24GHz 47GHz 76GHz 122GHz 134GHz 241GHz
22 13:40 22.5 67 13.38 16.1 30 37 1023.5 0 29.2 31.4 54.8 144.4 150.1 520.1
22 13:30 23.2 63 13.1 15.8 37 48 1023.5 0 28.6 30.7 53.1 140.0 144.9 502.2
22 13:20 22.5 66 13.18 15.8 33 44 1023.8 0 28.8 31.1 53.9 142.2 147.4 510.7
22 13:10 22.5 65 12.98 15.6 33 41 1024 0 28.4 30.7 53.1 140.0 144.6 501.2
22 13:00 21.6 66 12.52 15 35 46 1024.2 0 27.5 30.3 51.8 136.5 140.1 485.1
22 12:50 22.2 65 12.76 15.3 41 50 1024.2 0 27.9 30.5 52.4 138.1 142.2 492.7
22 12:40 22.1 66 12.88 15.5 35 39 1024.2 0 28.2 30.7 53.0 139.6 144.1 499.1
22 12:30 22.5 65 12.98 15.6 33 48 1024.3 0 28.4 30.8 53.1 140.0 144.7 501.3
22 12:20 22.7 66 13.33 16 32 43 1024.4 0 29.1 31.3 54.5 143.6 149.1 516.8
22 12:10 22.5 64 12.78 15.4 41 50 1024.6 0 27.9 30.4 52.3 137.8 142.0 491.9
22 12:00 21.9 66 12.73 15.3 37 43 1024.5 0 27.9 30.6 52.5 138.3 142.4 493.3
22 11:50 21.6 66 12.52 15 39 44 1024.6 0 27.5 30.3 51.8 136.5 140.1 485.2
22 11:40 21.5 70 13.2 15.8 35 44 1024.7 0 28.9 31.5 54.8 144.3 149.7 518.6
22 11:30 21.6 72 13.65 16.3 32 48 1024.8 0 29.8 32.2 56.6 149.3 155.8 539.9
22 11:20 21.2 71 13.16 15.7 30 35 1024.9 0 28.8 31.5 54.8 144.5 149.7 518.7
22 11:10 21.4 72 13.5 16.1 28 37 1024.9 0 29.5 32.1 56.1 148.0 154.1 534.0
22 11:00 20.7 73 13.14 15.7 33 50 1025.1 0 28.8 31.7 55.1 145.2 150.4 521.2
22 10:50 20.3 73 12.84 15.3 43 48 1025.1 0 28.2 31.3 54.1 142.5 147.0 509.1
22 10:40 20.6 72 12.89 15.4 28 33 1025.2 0 28.3 31.3 54.1 142.5 147.1 509.6
22 10:30 20.1 74 12.86 15.3 32 44 1025.3 0 28.3 31.4 54.3 143.1 147.7 511.5
22 10:20 19.7 78 13.24 15.8 28 32 1025.4 0 29.1 32.3 56.3 148.3 153.9 533.0
22 10:10 19.5 77 12.92 15.4 33 37 1025.4 0 28.4 31.8 55.0 145.0 149.7 518.5
22 10:00 20.2 73 12.76 15.2 33 48 1025.4 0 28.1 31.2 53.8 141.8 146.1 506.0
22 09:50 20.5 71 12.63 15.1 41 46 1025.3 0 27.8 30.9 53.1 139.8 143.7 497.7
22 09:40 20.7 71 12.78 15.3 33 46 1025.3 0 28.1 31.1 53.6 141.1 145.4 503.7
22 09:30 20.1 73 12.69 15.1 32 44 1025.4 0 27.9 31.2 53.6 141.2 145.3 503.2
22 09:20 19.5 78 13.09 15.6 30 35 1025.5 0 28.8 32.1 55.8 146.9 152.2 527.0
22 09:10 19.9 73 12.54 14.9 35 48 1025.5 0 27.6 31.0 53.1 139.9 143.6 497.2
22 09:00 20.1 76 13.21 15.7 32 43 1025.5 0 29.0 32.1 55.9 147.2 152.7 528.8
22 08:50 19.3 77 12.77 15.2 28 35 1025.5 0 28.1 31.6 54.5 143.6 148.0 512.4
22 08:40 19 77 12.55 14.9 32 41 1025.5 0 27.7 31.3 53.8 141.6 145.5 503.5
22 08:30 19.1 80 13.11 15.6 28 41 1025.5 0 28.9 32.3 56.1 147.9 153.2 530.7
22 08:20 18.7 80 12.81 15.2 24 32 1025.4 0 28.3 31.9 55.1 145.2 149.7 518.4
22 08:10 19 80 13.04 15.5 24 30 1025.3 0 28.7 32.2 55.9 147.3 152.4 527.8
22 08:00 18.8 81 13.04 15.5 30 39 1025.2 0 28.7 32.2 56.0 147.6 152.8 529.2
22 07:50 18.4 82 12.9 15.3 28 33 1025.2 0 28.5 32.1 55.7 146.8 151.6 524.9
22 07:40 18.2 83 12.9 15.3 32 35 1025.2 0 28.5 32.2 55.9 147.1 152.0 526.2
22 07:30 17.9 82 12.52 14.8 28 43 1024.9 0 27.7 31.6 54.4 143.2 147.1 509.0
22 07:20 17.9 84 12.82 15.2 26 32 1025 0 28.3 32.2 55.7 146.8 151.4 524.2
22 07:10 17.6 86 12.9 15.2 26 33 1024.9 0 28.5 32.4 56.3 148.3 153.2 530.2
22 07:00 17.3 87 12.82 15.1 28 41 1024.7 0 28.4 32.4 56.1 147.9 152.6 528.1
22 06:50 17.4 87 12.89 15.2 26 32 1024.7 0 28.5 32.5 56.4 148.5 153.4 531.0
22 06:40 17.2 88 12.89 15.2 28 33 1024.4 0 28.5 32.5 56.5 148.8 153.8 532.3
22 06:30 16.9 89 12.8 15.1 28 35 1024.3 0 28.4 32.5 56.3 148.3 153.0 529.7
22 06:20 16.9 88 12.66 14.9 28 35 1024.6 0 28.1 32.2 55.7 146.7 151.0 522.7
22 06:10 16.9 89 12.8 15.1 22 26 1024.6 0 28.4 32.5 56.3 148.4 153.1 529.8
22 06:00 16.9 89 12.8 15.1 30 35 1024.6 0 28.4 32.5 56.3 148.4 153.1 529.8
22 05:50 16.7 90 12.79 15.1 26 32 1024.7 0 28.4 32.6 56.4 148.7 153.3 530.8
22 05:40 16.6 90 12.71 15 24 28 1024.7 0 28.2 32.4 56.1 147.9 152.4 527.3
22 05:20 16.6 90 12.71 15 19 20 1024.5 0 28.2 32.4 56.1 147.9 152.4 527.3
22 05:10 16.4 92 12.84 15.1 26 32 1024.5 0 28.5 32.8 56.9 149.8 154.7 535.3
22 05:00 16 93 12.67 14.9 17 28 1024.4 0 28.2 32.6 56.4 148.5 153.0 529.3
22 04:50 15.8 92 12.38 14.5 17 20 1024.5 0 27.5 32.1 55.2 145.5 149.1 515.8
22 04:40 15.8 92 12.38 14.5 20 26 1024.5 0 27.5 32.1 55.2 145.5 149.1 515.8
22 04:30 15.7 93 12.44 14.6 22 35 1024.4 0 27.7 32.3 55.6 146.3 150.2 519.5
22 04:20 15.6 94 12.5 14.6 24 26 1024.7 0 27.8 32.4 55.9 147.3 151.3 523.4
22 04:10 15.3 96 12.54 14.7 17 24 1024.8 0 27.9 32.6 56.3 148.4 152.5 527.6
22 04:00 14.5 96 11.94 13.9 17 22 1025 0 26.7 31.9 54.2 142.7 145.2 502.0
22 03:50 14.3 95 11.67 13.5 15 15 1025.2 0 26.1 31.4 53.1 139.8 141.6 489.4
22 03:40 14.4 96 11.87 13.8 11 11 1025.4 0 26.5 31.8 54.0 142.1 144.4 499.2
22 03:30 14.2 96 11.72 13.6 9 13 1025.5 0 26.2 31.6 53.4 140.7 142.6 492.8
22 03:20 14.1 96 11.65 13.5 11 11 1025.6 0 26.1 31.5 53.2 140.0 141.7 489.8
22 03:10 14.1 96 11.65 13.5 11 13 1025.7 0 26.1 31.5 53.2 140.0 141.7 489.9
22 03:00 14 96 11.58 13.4 11 11 1025.8 0 25.9 31.4 53.0 139.4 140.9 487.0
22 02:50 13.8 96 11.44 13.2 11 11 1025.9 0 25.7 31.2 52.5 138.1 139.2 481.1
22 02:40 13.9 96 11.51 13.3 11 13 1026 0 25.8 31.3 52.7 138.8 140.1 484.1
22 02:30 13.8 96 11.44 13.2 13 15 1026.1 0 25.7 31.3 52.5 138.1 139.3 481.1
22 02:20 13.9 96 11.51 13.3 13 13 1026.2 0 25.8 31.3 52.7 138.8 140.1 484.1
22 02:10 13.9 96 11.51 13.3 9 11 1026.3 0 25.8 31.4 52.7 138.8 140.1 484.2
22 02:00 13.5 97 11.35 13 9 13 1026.3 0 25.5 31.2 52.3 137.6 138.5 478.5
22 01:50 12.4 96 10.49 11.8 7 9 1026.5 0 23.7 30.1 49.2 129.3 127.9 441.2
22 01:40 12.4 95 10.38 11.6 11 13 1026.6 0 23.5 29.9 48.7 128.0 126.3 435.7
22 01:30 12.4 95 10.38 11.6 7 9 1026.8 0 23.5 29.9 48.7 128.1 126.3 435.7
22 01:20 12.6 94 10.4 11.7 9 9 1027 0 23.5 29.9 48.7 128.0 126.3 435.7
22 01:10 12.3 93 10.1 11.2 9 9 1027 0 22.9 29.4 47.6 125.0 122.5 422.3
22 01:00 13.7 94 11.13 12.8 7 9 1027 0 25.0 30.8 51.2 134.7 135.0 466.2
22 00:50 14 94 11.34 13.1 9 9 1027 0 25.4 31.0 52.0 136.7 137.5 475.1
22 00:40 14.1 94 11.41 13.1 9 11 1027 0 25.6 31.1 52.2 137.3 138.4 478.1
22 00:30 14.1 94 11.41 13.1 11 13 1027 0 25.6 31.1 52.2 137.3 138.4 478.1
22 00:20 14.1 94 11.41 13.1 11 11 1026.9 0 25.6 31.1 52.2 137.3 138.3 478.0
22 00:10 14 94 11.34 13.1 9 11 1026.9 0 25.4 31.0 51.9 136.7 137.5 475.1
22 00:00 14 94 11.34 13.1 11 15 1027 0 25.4 31.0 52.0 136.7 137.5 475.1
21 23:50 13.7 93 11.01 12.6 15 15 1027.1 0 24.7 30.6 50.7 133.3 133.3 460.2
21 23:40 13.8 93 11.08 12.7 13 13 1027.3 0 24.9 30.7 50.9 134.0 134.1 463.2
21 23:30 14 92 11.1 12.7 7 11 1027.5 0 24.9 30.6 50.9 133.9 134.1 463.1
21 23:20 14 92 11.1 12.7 9 9 1027.5 0 24.9 30.6 50.9 133.9 134.1 463.1
21 23:10 14.3 91 11.18 12.9 7 9 1027.5 0 25.1 30.7 51.1 134.3 134.7 465.3
21 23:00 14.4 90 11.13 12.8 7 11 1027.5 0 24.9 30.5 50.8 133.6 133.8 462.2
21 22:50 14.6 90 11.26 13 9 9 1027.6 0 25.2 30.7 51.2 134.7 135.3 467.6
21 22:40 14.8 89 11.27 13 7 9 1027.6 0 25.2 30.7 51.1 134.5 135.1 466.9
21 22:30 15 89 11.41 13.2 9 15 1027.7 0 25.5 30.8 51.6 135.8 136.8 472.7
21 22:20 15.2 88 11.42 13.2 11 11 1027.5 0 25.5 30.8 51.5 135.6 136.6 472.0
21 22:10 15.5 88 11.63 13.5 9 9 1027.7 0 26.0 31.0 52.3 137.5 139.1 480.8
21 22:00 15.9 88 11.92 13.9 15 19 1027.5 0 26.5 31.4 53.3 140.2 142.5 492.8
21 21:50 15.9 87 11.78 13.7 15 17 1027.5 0 26.2 31.2 52.6 138.5 140.5 485.7
21 21:40 16 87 11.85 13.8 15 17 1027.5 0 26.4 31.2 52.9 139.2 141.3 488.6
21 21:30 16.1 85 11.65 13.6 13 17 1027.5 0 26.0 30.9 51.9 136.7 138.2 478.0
21 21:20 16.5 85 11.93 14 15 17 1027.4 0 26.5 31.2 52.9 139.2 141.5 489.4
21 21:10 16.8 84 12.01 14.1 17 19 1027.3 0 26.7 31.2 53.0 139.6 142.1 491.5
21 21:00 17 83 12.01 14.1 17 22 1027.3 0 26.7 31.2 52.9 139.2 141.7 490.2

Last Refresh: 22-Jan-2022 13:23:12

Bureau of Meteorology